KSBY/SBY METAR and TAF weather

Enter ICAO airport designator
Station Type Date Time Source
KSBY METAR 2022/12/08 12:38 UTC NOAA

KSBY 081238Z 36005KT 7SM BKN005 11/10 A3023 RMK AO2 T01110100


Station Type Date Time Source
KSBY Decoded METAR 2022/12/08 12:38 UTC NOAA

SALISBURY-WICOMICO CTY REG, MD, United States (KSBY) 38-20N 075-30W 19M
Dec 08, 2022 - 07:38 AM EST / 2022.12.08 1238 UTC
Wind: from the N (360 degrees) at 6 MPH (5 KT):0
Visibility: 7 mile(s):0
Sky conditions: mostly cloudy
Temperature: 52.0 F (11.1 C)
Dew Point: 50.0 F (10.0 C)
Relative Humidity: 92%
Pressure (altimeter): 30.23 in. Hg (1023 hPa)
ob: KSBY 081238Z 36005KT 7SM BKN005 11/10 A3023 RMK AO2 T01110100
cycle: 12

Station Type Date Time Source
KSBY TAF 2022/12/08 12:40 UTC NOAA

TAF KSBY 081138Z 0812/0912 35007KT P6SM SCT008 SCT045
FM081300 35010KT P6SM SCT250
FM082300 35004KT P6SM SCT100 BKN250

Example: see airport list